createdAt,value
2022-09-07T00:00:31.012Z,0.00
2022-09-07T00:01:31.033Z,0.00
2022-09-07T00:02:31.002Z,0.00
2022-09-07T00:03:31.028Z,0.00
2022-09-07T00:04:31.028Z,0.00
2022-09-07T00:05:30.939Z,0.00
2022-09-07T00:06:30.942Z,0.00
2022-09-07T00:07:30.921Z,0.00
2022-09-07T00:08:30.991Z,0.00
2022-09-07T00:09:30.889Z,0.00
2022-09-07T00:10:30.871Z,0.00
2022-09-07T00:11:30.853Z,0.00
2022-09-07T00:12:30.846Z,0.00
2022-09-07T00:13:30.848Z,0.00
2022-09-07T00:14:30.816Z,0.00
2022-09-07T00:15:30.796Z,0.00
2022-09-07T00:16:30.883Z,0.00
2022-09-07T00:17:30.787Z,0.00
2022-09-07T00:18:30.930Z,0.00
2022-09-07T00:19:30.742Z,0.00
2022-09-07T00:20:30.747Z,0.00
2022-09-07T00:21:30.719Z,0.00
2022-09-07T00:22:30.707Z,0.00
2022-09-07T00:23:30.684Z,0.00
2022-09-07T00:24:30.709Z,0.00
2022-09-07T00:25:32.027Z,0.00
2022-09-07T00:26:30.687Z,0.00
2022-09-07T00:27:30.639Z,0.00
2022-09-07T00:28:30.747Z,0.00
2022-09-07T00:29:30.611Z,0.00
2022-09-07T00:30:30.602Z,0.00
2022-09-07T00:31:30.692Z,0.00
2022-09-07T00:32:30.607Z,0.00
2022-09-07T00:33:30.552Z,0.00
2022-09-07T00:34:30.572Z,0.00
2022-09-07T00:35:30.555Z,0.00
2022-09-07T00:36:30.566Z,0.00
2022-09-07T00:37:30.525Z,0.00
2022-09-07T00:38:30.598Z,0.00
2022-09-07T00:39:30.572Z,0.00
2022-09-07T00:40:30.497Z,0.00
2022-09-07T00:41:30.464Z,0.00
2022-09-07T00:42:30.451Z,0.00
2022-09-07T00:43:30.421Z,0.00
2022-09-07T00:44:30.426Z,0.00
2022-09-07T00:45:30.432Z,0.00
2022-09-07T00:46:30.449Z,0.00
2022-09-07T00:47:30.377Z,0.00
2022-09-07T00:48:30.455Z,0.00
2022-09-07T00:49:30.349Z,0.00
2022-09-07T00:50:30.346Z,0.00
2022-09-07T00:51:30.347Z,0.00
2022-09-07T00:52:30.336Z,0.00
2022-09-07T00:53:30.318Z,0.00
2022-09-07T00:54:30.290Z,0.00
2022-09-07T00:55:30.285Z,0.00
2022-09-07T00:56:30.276Z,0.00
2022-09-07T00:57:30.261Z,0.00
2022-09-07T00:58:30.330Z,0.00
2022-09-07T00:59:30.296Z,0.00
2022-09-07T01:00:30.225Z,0.00
2022-09-07T01:01:30.296Z,0.00
2022-09-07T01:02:30.283Z,0.00
2022-09-07T01:03:30.210Z,0.00
2022-09-07T01:04:30.187Z,0.00
2022-09-07T01:05:30.164Z,0.00
2022-09-07T01:06:30.177Z,0.00
2022-09-07T01:07:30.106Z,0.00
2022-09-07T01:08:30.250Z,0.00
2022-09-07T01:09:30.082Z,0.00
2022-09-07T01:10:30.072Z,0.00
2022-09-07T01:11:30.053Z,0.00
2022-09-07T01:12:30.073Z,0.00
2022-09-07T01:13:30.052Z,0.00
2022-09-07T01:14:30.040Z,0.00
2022-09-07T01:15:29.999Z,0.00
2022-09-07T01:16:30.010Z,0.00
2022-09-07T01:17:29.960Z,0.00
2022-09-07T01:18:30.108Z,0.00
2022-09-07T01:19:29.961Z,0.00
2022-09-07T01:20:29.966Z,0.00
2022-09-07T01:21:29.908Z,0.00
2022-09-07T01:22:29.921Z,0.00
2022-09-07T01:23:29.892Z,0.00
2022-09-07T01:24:29.914Z,0.00
2022-09-07T01:25:29.860Z,0.00
2022-09-07T01:26:29.843Z,0.00
2022-09-07T01:27:29.853Z,0.00
2022-09-07T01:28:29.906Z,0.00
2022-09-07T01:29:29.885Z,0.00
2022-09-07T01:30:29.823Z,0.00
2022-09-07T01:31:29.857Z,0.00
2022-09-07T01:32:29.805Z,0.00
2022-09-07T01:33:29.781Z,0.00
2022-09-07T01:34:29.756Z,0.00
2022-09-07T01:35:29.736Z,0.00
2022-09-07T01:36:29.798Z,0.00
2022-09-07T01:37:29.695Z,0.00
2022-09-07T01:38:29.827Z,0.00
2022-09-07T01:39:29.748Z,0.00
2022-09-07T01:40:29.739Z,0.00
2022-09-07T01:41:29.659Z,0.00
2022-09-07T01:42:29.650Z,0.00
2022-09-07T01:43:29.633Z,0.00
2022-09-07T01:44:29.657Z,0.00
2022-09-07T01:45:29.599Z,0.00
2022-09-07T01:46:29.671Z,0.00
2022-09-07T01:47:29.569Z,0.00
2022-09-07T01:48:29.671Z,0.00
2022-09-07T01:49:29.557Z,0.00
2022-09-07T01:50:29.532Z,0.00
2022-09-07T01:51:29.516Z,0.00
2022-09-07T01:52:29.496Z,0.00
2022-09-07T01:53:29.493Z,0.00
2022-09-07T01:54:29.493Z,0.00
2022-09-07T01:55:29.472Z,0.00
2022-09-07T01:56:29.443Z,0.00
2022-09-07T01:57:29.443Z,0.00
2022-09-07T01:58:29.481Z,0.00
2022-09-07T01:59:29.412Z,0.00
2022-09-07T02:00:29.410Z,0.00
2022-09-07T02:01:29.402Z,0.00
2022-09-07T02:02:29.452Z,0.00
2022-09-07T02:03:29.382Z,0.00
2022-09-07T02:04:29.379Z,0.00
2022-09-07T02:05:29.368Z,0.00
2022-09-07T02:06:29.313Z,0.00
2022-09-07T02:07:29.316Z,0.00
2022-09-07T02:08:29.410Z,0.00
2022-09-07T02:09:29.259Z,0.00
2022-09-07T02:10:29.255Z,0.00
2022-09-07T02:11:29.238Z,0.00
2022-09-07T02:12:29.236Z,0.00
2022-09-07T02:13:29.201Z,0.00
2022-09-07T02:14:29.214Z,0.00
2022-09-07T02:15:29.218Z,0.00
2022-09-07T02:16:29.159Z,0.00
2022-09-07T02:17:29.159Z,0.00
2022-09-07T02:18:29.179Z,0.00
2022-09-07T02:19:29.126Z,0.00
2022-09-07T02:20:29.131Z,0.00
2022-09-07T02:21:29.089Z,0.00
2022-09-07T02:22:29.095Z,0.00
2022-09-07T02:23:29.105Z,0.00
2022-09-07T02:24:29.060Z,0.00
2022-09-07T02:25:29.049Z,0.00
2022-09-07T02:26:29.073Z,0.00
2022-09-07T02:27:29.018Z,0.00
2022-09-07T02:28:29.049Z,0.00
2022-09-07T02:29:30.986Z,0.00
2022-09-07T02:30:28.959Z,0.00
2022-09-07T02:31:29.039Z,0.00
2022-09-07T02:32:28.944Z,0.00
2022-09-07T02:33:28.939Z,0.00
2022-09-07T02:34:28.924Z,0.00
2022-09-07T02:35:28.907Z,0.00
2022-09-07T02:36:28.889Z,0.00
2022-09-07T02:37:28.990Z,0.00
2022-09-07T02:38:28.932Z,0.00
2022-09-07T02:39:28.872Z,0.00
2022-09-07T02:40:28.848Z,0.00
2022-09-07T02:41:28.822Z,0.00
2022-09-07T02:42:28.813Z,0.00
2022-09-07T02:43:28.840Z,0.00
2022-09-07T02:44:28.778Z,0.00
2022-09-07T02:45:28.793Z,0.00
2022-09-07T02:46:28.818Z,0.00
2022-09-07T02:47:28.763Z,0.00
2022-09-07T02:48:28.772Z,0.00
2022-09-07T02:49:28.711Z,0.00
2022-09-07T02:50:28.717Z,0.00
2022-09-07T02:51:28.687Z,0.00
2022-09-07T02:52:28.684Z,0.00
2022-09-07T02:53:28.678Z,0.00
2022-09-07T02:54:28.654Z,0.00
2022-09-07T02:55:28.635Z,0.00
2022-09-07T02:56:28.638Z,0.00
2022-09-07T02:57:28.606Z,0.00
2022-09-07T02:58:28.625Z,0.00
2022-09-07T02:59:28.573Z,0.00
2022-09-07T03:00:28.588Z,0.00
2022-09-07T03:01:28.626Z,0.00
2022-09-07T03:02:28.584Z,0.00
2022-09-07T03:03:28.556Z,0.00
2022-09-07T03:04:28.505Z,0.00
2022-09-07T03:05:28.517Z,0.00
2022-09-07T03:06:28.495Z,0.00
2022-09-07T03:07:28.497Z,0.00
2022-09-07T03:08:28.466Z,0.00
2022-09-07T03:09:28.453Z,0.00
2022-09-07T03:10:28.429Z,0.00
2022-09-07T03:11:28.436Z,0.00
2022-09-07T03:12:28.408Z,0.00
2022-09-07T03:13:28.416Z,0.00
2022-09-07T03:14:28.401Z,0.00
2022-09-07T03:15:28.440Z,0.00
2022-09-07T03:16:28.341Z,0.00
2022-09-07T03:17:28.327Z,0.00
2022-09-07T03:18:28.358Z,0.00
2022-09-07T03:19:28.306Z,0.00
2022-09-07T03:20:28.377Z,0.00
2022-09-07T03:21:28.277Z,0.00
2022-09-07T03:22:28.293Z,0.00
2022-09-07T03:23:28.325Z,0.00
2022-09-07T03:24:28.256Z,0.00
2022-09-07T03:25:28.227Z,0.00
2022-09-07T03:26:28.200Z,0.00
2022-09-07T03:27:28.205Z,0.00
2022-09-07T03:28:28.316Z,0.00
2022-09-07T03:29:28.199Z,0.00
2022-09-07T03:30:28.167Z,0.00
2022-09-07T03:31:28.187Z,0.00
2022-09-07T03:32:28.166Z,0.00
2022-09-07T03:33:28.104Z,0.00
2022-09-07T03:34:28.140Z,0.00
2022-09-07T03:35:28.109Z,0.00
2022-09-07T03:36:28.059Z,0.00
2022-09-07T03:37:28.051Z,0.00
2022-09-07T03:38:28.042Z,0.00
2022-09-07T03:39:28.088Z,0.00
2022-09-07T03:40:28.054Z,0.00
2022-09-07T03:41:28.060Z,0.00
2022-09-07T03:42:28.012Z,0.00
2022-09-07T03:43:27.963Z,0.00
2022-09-07T03:44:27.965Z,0.00
2022-09-07T03:45:28.006Z,0.00
2022-09-07T03:46:28.004Z,0.00
2022-09-07T03:47:27.926Z,0.00
2022-09-07T03:48:27.909Z,0.00
2022-09-07T03:49:27.893Z,0.00
2022-09-07T03:50:27.876Z,0.00
2022-09-07T03:51:27.923Z,0.00
2022-09-07T03:52:27.856Z,0.00
2022-09-07T03:53:27.882Z,0.00
2022-09-07T03:54:27.844Z,0.00
2022-09-07T03:55:27.832Z,0.00
2022-09-07T03:56:27.787Z,0.00
2022-09-07T03:57:27.786Z,0.00
2022-09-07T03:58:27.812Z,0.00
2022-09-07T03:59:27.777Z,0.00
2022-09-07T04:00:27.734Z,0.00
2022-09-07T04:01:27.792Z,0.00
2022-09-07T04:02:27.757Z,0.00
2022-09-07T04:03:27.709Z,0.00
2022-09-07T04:04:27.719Z,0.00
2022-09-07T04:05:27.690Z,0.00
2022-09-07T04:06:27.670Z,0.00
2022-09-07T04:07:27.639Z,0.00
2022-09-07T04:08:27.774Z,0.00
2022-09-07T04:09:27.626Z,0.00
2022-09-07T04:10:27.651Z,0.00
2022-09-07T04:11:27.591Z,0.00
2022-09-07T04:12:27.581Z,0.00
2022-09-07T04:13:27.571Z,0.00
2022-09-07T04:14:27.571Z,0.00
2022-09-07T04:15:27.533Z,0.00
2022-09-07T04:16:27.609Z,0.00
2022-09-07T04:17:27.536Z,0.00
2022-09-07T04:18:27.526Z,0.00
2022-09-07T04:19:27.487Z,0.00
2022-09-07T04:20:27.484Z,0.00
2022-09-07T04:21:27.504Z,0.00
2022-09-07T04:22:27.445Z,0.00
2022-09-07T04:23:27.416Z,0.00
2022-09-07T04:24:27.426Z,0.00
2022-09-07T04:25:27.415Z,0.00
2022-09-07T04:26:27.386Z,0.00
2022-09-07T04:27:27.415Z,0.00
2022-09-07T04:28:27.443Z,0.00
2022-09-07T04:29:27.356Z,4.00
2022-09-07T04:30:27.329Z,4.00
2022-09-07T04:31:27.426Z,0.00
2022-09-07T04:32:27.537Z,4.00
2022-09-07T04:33:27.287Z,4.00
2022-09-07T04:34:27.279Z,4.00
2022-09-07T04:35:27.293Z,8.00
2022-09-07T04:36:27.256Z,4.00
2022-09-07T04:37:27.239Z,8.00
2022-09-07T04:38:27.359Z,12.00
2022-09-07T04:39:27.250Z,12.00
2022-09-07T04:40:27.224Z,12.00
2022-09-07T04:41:27.200Z,16.00
2022-09-07T04:42:27.170Z,16.00
2022-09-07T04:43:27.162Z,20.00
2022-09-07T04:44:27.158Z,24.00
2022-09-07T04:45:27.131Z,24.00
2022-09-07T04:46:27.181Z,28.00
2022-09-07T04:47:27.106Z,32.00
2022-09-07T04:48:27.186Z,36.00
2022-09-07T04:49:27.082Z,40.00
2022-09-07T04:50:27.068Z,40.00
2022-09-07T04:51:27.051Z,48.00
2022-09-07T04:52:27.041Z,56.00
2022-09-07T04:53:27.012Z,56.00
2022-09-07T04:54:27.057Z,64.00
2022-09-07T04:55:27.006Z,68.00
2022-09-07T04:56:27.016Z,76.00
2022-09-07T04:57:26.986Z,84.00
2022-09-07T04:58:27.011Z,88.00
2022-09-07T04:59:26.961Z,92.00
2022-09-07T05:00:26.918Z,100.00
2022-09-07T05:01:26.960Z,108.00
2022-09-07T05:02:26.957Z,120.00
2022-09-07T05:03:26.897Z,128.00
2022-09-07T05:04:26.893Z,136.00
2022-09-07T05:05:26.881Z,148.00
2022-09-07T05:06:26.870Z,160.00
2022-09-07T05:07:26.868Z,172.00
2022-09-07T05:08:26.848Z,188.00
2022-09-07T05:09:26.823Z,204.00
2022-09-07T05:10:26.802Z,216.00
2022-09-07T05:11:29.529Z,224.00
2022-09-07T05:12:26.808Z,240.00
2022-09-07T05:13:26.754Z,252.00
2022-09-07T05:14:26.762Z,268.00
2022-09-07T05:15:26.748Z,284.00
2022-09-07T05:16:26.789Z,300.00
2022-09-07T05:17:26.711Z,316.00
2022-09-07T05:18:26.709Z,332.00
2022-09-07T05:19:26.699Z,352.00
2022-09-07T05:20:26.663Z,368.00
2022-09-07T05:21:26.669Z,384.00
2022-09-07T05:22:26.644Z,404.00
2022-09-07T05:23:26.630Z,416.00
2022-09-07T05:24:26.599Z,432.00
2022-09-07T05:25:26.610Z,444.00
2022-09-07T05:26:26.565Z,460.00
2022-09-07T05:27:26.565Z,468.00
2022-09-07T05:28:26.619Z,476.00
2022-09-07T05:31:27.589Z,512.00
2022-09-07T05:32:26.517Z,516.00
2022-09-07T05:35:26.469Z,560.00
2022-09-07T05:36:26.438Z,580.00
2022-09-07T05:37:26.452Z,596.00
2022-09-07T05:38:26.501Z,600.00
2022-09-07T05:39:26.454Z,616.00
2022-09-07T05:40:26.418Z,632.00
2022-09-07T05:41:26.386Z,632.00
2022-09-07T05:42:26.365Z,648.00
2022-09-07T05:43:26.355Z,632.00
2022-09-07T05:45:27.412Z,652.00
2022-09-07T05:46:26.305Z,672.00
2022-09-07T05:47:26.313Z,684.00
2022-09-07T05:48:26.321Z,704.00
2022-09-07T05:49:26.270Z,724.00
2022-09-07T05:50:26.252Z,748.00
2022-09-07T05:51:26.236Z,784.00
2022-09-07T05:52:26.217Z,780.00
2022-09-07T05:53:26.252Z,808.00
2022-09-07T05:54:26.202Z,832.00
2022-09-07T05:55:30.592Z,836.00
2022-09-07T05:56:26.195Z,876.00
2022-09-07T05:57:26.162Z,892.00
2022-09-07T05:58:26.147Z,916.00
2022-09-07T05:59:26.154Z,944.00
2022-09-07T06:00:26.135Z,936.00
2022-09-07T06:01:26.117Z,956.00
2022-09-07T06:02:26.176Z,924.00
2022-09-07T06:03:26.120Z,924.00
2022-09-07T06:04:26.047Z,928.00
2022-09-07T06:05:26.049Z,948.00
2022-09-07T06:06:26.032Z,972.00
2022-09-07T06:07:26.019Z,1020.00
2022-09-07T06:08:26.005Z,1032.00
2022-09-07T06:09:30.230Z,1028.00
2022-09-07T06:11:26.994Z,1040.00
2022-09-07T06:12:25.942Z,1128.00
2022-09-07T06:13:25.997Z,1140.00
2022-09-07T06:14:25.913Z,1184.00
2022-09-07T06:15:25.912Z,1268.00
2022-09-07T06:16:25.990Z,1296.00
2022-09-07T06:17:25.946Z,1280.00
2022-09-07T06:18:25.856Z,1352.00
2022-09-07T06:19:25.851Z,1356.00
2022-09-07T06:20:25.859Z,1320.00
2022-09-07T06:21:25.829Z,1412.00
2022-09-07T06:22:28.933Z,1440.00
2022-09-07T06:23:26.853Z,1524.00
2022-09-07T06:24:25.768Z,1556.00
2022-09-07T06:25:25.786Z,1580.00
2022-09-07T06:26:25.749Z,1544.00
2022-09-07T06:27:25.738Z,1540.00
2022-09-07T06:28:25.770Z,1500.00
2022-09-07T06:29:25.732Z,1428.00
2022-09-07T06:30:25.706Z,1456.00
2022-09-07T06:31:25.746Z,1476.00
2022-09-07T06:33:26.678Z,1648.00
2022-09-07T06:34:25.646Z,1664.00
2022-09-07T06:35:25.646Z,1612.00
2022-09-07T06:36:25.632Z,1580.00
2022-09-07T06:37:25.618Z,1528.00
2022-09-07T06:38:28.789Z,1496.00
2022-09-07T06:39:26.639Z,1504.00
2022-09-07T06:40:25.607Z,1584.00
2022-09-07T06:42:26.538Z,1520.00
2022-09-07T06:43:25.584Z,1636.00
2022-09-07T06:44:25.509Z,1636.00
2022-09-07T06:45:25.587Z,1700.00
2022-09-07T06:47:26.522Z,1800.00
2022-09-07T06:48:25.479Z,2020.00
2022-09-07T06:49:25.466Z,2148.00
2022-09-07T06:50:25.467Z,2384.00
2022-09-07T06:51:25.442Z,2636.00
2022-09-07T06:52:25.443Z,2672.00
2022-09-07T06:53:43.111Z,2760.00
2022-09-07T06:55:26.371Z,3496.00
2022-09-07T06:56:25.353Z,3584.00
2022-09-07T06:57:25.338Z,3656.00
2022-09-07T06:58:25.444Z,3576.00
2022-09-07T06:59:25.323Z,3724.00
2022-09-07T07:00:25.354Z,3456.00
2022-09-07T07:01:25.317Z,3772.00
2022-09-07T07:02:25.272Z,3524.00
2022-09-07T07:03:25.322Z,3688.00
2022-09-07T07:04:25.237Z,3756.00
2022-09-07T07:05:25.229Z,3792.00
2022-09-07T07:06:25.209Z,3700.00
2022-09-07T07:07:25.248Z,3708.00
2022-09-07T07:08:25.238Z,3696.00
2022-09-07T07:09:25.195Z,3644.00
2022-09-07T07:10:25.385Z,3712.00
2022-09-07T07:11:25.137Z,3628.00
2022-09-07T07:12:56.374Z,3736.00
2022-09-07T07:13:56.360Z,3612.00
2022-09-07T07:14:56.340Z,3540.00
2022-09-07T07:15:56.364Z,3552.00
2022-09-07T07:16:56.302Z,3212.00
2022-09-07T07:18:05.136Z,3064.00
2022-09-07T07:18:57.296Z,2928.00
2022-09-07T07:19:56.276Z,2896.00
2022-09-07T07:20:56.254Z,2860.00
2022-09-07T07:22:57.233Z,2668.00
2022-09-07T07:23:56.222Z,2624.00
2022-09-07T07:24:56.218Z,2536.00
2022-09-07T07:25:56.186Z,2464.00
2022-09-07T07:26:56.179Z,2452.00
2022-09-07T07:27:56.862Z,2692.00
2022-09-07T07:29:56.146Z,2884.00
2022-09-07T07:30:56.132Z,2924.00
2022-09-07T07:31:56.107Z,2956.00
2022-09-07T07:32:56.170Z,2908.00
2022-09-07T07:33:56.174Z,2992.00
2022-09-07T07:34:56.054Z,3084.00
2022-09-07T07:35:56.073Z,3044.00
2022-09-07T07:36:56.050Z,2848.00
2022-09-07T07:42:00.064Z,3316.00
2022-09-07T07:42:56.979Z,3044.00
2022-09-07T07:43:55.978Z,2844.00
2022-09-07T07:45:57.830Z,2792.00
2022-09-07T07:46:55.952Z,2836.00
2022-09-07T07:47:55.903Z,3068.00
2022-09-07T07:48:55.882Z,3216.00
2022-09-07T07:50:30.864Z,3456.00
2022-09-07T07:50:56.857Z,3328.00
2022-09-07T07:53:57.118Z,3396.00
2022-09-07T07:54:55.843Z,3580.00
2022-09-07T07:55:55.821Z,3764.00
2022-09-07T07:56:55.789Z,3960.00
2022-09-07T07:57:55.815Z,4044.00
2022-09-07T07:58:55.747Z,4044.00
2022-09-07T07:59:55.760Z,3716.00
2022-09-07T08:00:56.511Z,3272.00
2022-09-07T08:01:55.809Z,3152.00
2022-09-07T08:02:55.688Z,3024.00
2022-09-07T08:03:55.718Z,2808.00
2022-09-07T08:04:55.682Z,2464.00
2022-09-07T08:05:55.677Z,2428.00
2022-09-07T08:06:55.650Z,2268.00
2022-09-07T08:07:55.635Z,2060.00
2022-09-07T08:08:55.632Z,2028.00
2022-09-07T08:09:55.619Z,1916.00
2022-09-07T08:10:55.599Z,1820.00
2022-09-07T08:11:55.601Z,1716.00
2022-09-07T08:12:55.571Z,1648.00
2022-09-07T08:13:55.541Z,1616.00
2022-09-07T08:14:55.544Z,1592.00
2022-09-07T08:15:55.547Z,1572.00
2022-09-07T08:16:55.502Z,1532.00
2022-09-07T08:17:55.504Z,1508.00
2022-09-07T08:18:55.490Z,1484.00
2022-09-07T08:19:55.498Z,1440.00
2022-09-07T08:20:55.464Z,1372.00
2022-09-07T08:21:55.448Z,1272.00
2022-09-07T08:22:55.444Z,1156.00
2022-09-07T08:23:55.424Z,1116.00
2022-09-07T08:24:55.429Z,1080.00
2022-09-07T08:25:55.400Z,1044.00
2022-09-07T08:26:55.364Z,1004.00
2022-09-07T08:27:55.366Z,960.00
2022-09-07T08:28:55.371Z,916.00
2022-09-07T08:29:55.335Z,900.00
2022-09-07T08:30:55.337Z,888.00
2022-09-07T08:31:55.351Z,868.00
2022-09-07T08:32:55.304Z,852.00
2022-09-07T08:33:55.297Z,868.00
2022-09-07T08:34:55.297Z,892.00
2022-09-07T08:35:55.275Z,912.00
2022-09-07T08:36:55.255Z,936.00
2022-09-07T08:37:55.282Z,968.00
2022-09-07T08:38:55.240Z,1000.00
2022-09-07T08:39:55.288Z,1036.00
2022-09-07T08:40:55.209Z,1084.00
2022-09-07T08:41:55.224Z,1128.00
2022-09-07T08:42:55.149Z,1172.00
2022-09-07T08:43:55.154Z,1212.00
2022-09-07T08:44:55.179Z,1232.00
2022-09-07T08:45:55.172Z,1248.00
2022-09-07T08:46:55.167Z,1272.00
2022-09-07T08:47:55.115Z,1304.00
2022-09-07T08:48:55.115Z,1352.00
2022-09-07T08:49:55.086Z,1408.00
2022-09-07T08:50:55.087Z,1480.00
2022-09-07T08:51:55.072Z,1544.00
2022-09-07T08:52:55.030Z,1628.00
2022-09-07T08:53:55.038Z,1752.00
2022-09-07T08:54:55.019Z,1924.00
2022-09-07T08:55:54.987Z,2052.00
2022-09-07T08:57:55.979Z,2224.00
2022-09-07T08:58:54.958Z,2320.00
2022-09-07T08:59:54.985Z,2372.00
2022-09-07T09:01:30.737Z,2420.00
2022-09-07T09:05:55.991Z,2308.00
2022-09-07T09:06:54.947Z,2572.00
2022-09-07T09:07:54.837Z,2792.00
2022-09-07T09:08:54.825Z,3332.00
2022-09-07T09:09:54.801Z,3232.00
2022-09-07T09:10:54.798Z,3316.00
2022-09-07T09:12:03.485Z,3068.00
2022-09-07T09:12:54.777Z,3328.00
2022-09-07T09:14:03.521Z,4008.00
2022-09-07T09:14:54.737Z,4356.00
2022-09-07T09:15:54.774Z,4304.00
2022-09-07T09:16:54.698Z,4504.00
2022-09-07T09:17:54.823Z,4464.00
2022-09-07T09:18:54.666Z,4548.00
2022-09-07T09:19:54.690Z,4452.00
2022-09-07T09:20:54.652Z,4432.00
2022-09-07T09:21:54.645Z,4308.00
2022-09-07T09:22:54.665Z,4196.00
2022-09-07T09:23:54.628Z,4060.00
2022-09-07T09:24:54.863Z,4024.00
2022-09-07T09:25:54.583Z,4188.00
2022-09-07T09:26:54.606Z,4308.00
2022-09-07T09:27:54.570Z,4300.00
2022-09-07T09:28:54.592Z,4004.00
2022-09-07T09:29:54.514Z,3676.00
2022-09-07T09:30:54.650Z,3868.00
2022-09-07T09:31:54.515Z,3232.00
2022-09-07T09:32:54.476Z,3192.00
2022-09-07T09:33:54.523Z,3292.00
2022-09-07T09:34:54.451Z,3372.00
2022-09-07T09:35:54.457Z,3196.00
2022-09-07T09:36:54.420Z,3308.00
2022-09-07T09:37:54.418Z,3368.00
2022-09-07T09:38:54.426Z,3304.00
2022-09-07T09:39:55.512Z,3728.00
2022-09-07T09:40:54.389Z,4272.00
2022-09-07T09:41:54.358Z,4596.00
2022-09-07T09:42:54.338Z,4132.00
2022-09-07T09:43:54.326Z,3912.00
2022-09-07T09:44:54.349Z,4096.00
2022-09-07T09:47:55.314Z,4164.00
2022-09-07T09:48:54.266Z,4256.00
2022-09-07T09:49:54.283Z,4160.00
2022-09-07T09:52:55.242Z,4312.00
2022-09-07T09:53:54.194Z,4132.00
2022-09-07T09:54:55.830Z,4092.00
2022-09-07T09:55:54.226Z,4136.00
2022-09-07T09:56:54.173Z,4152.00
2022-09-07T09:59:57.455Z,3636.00
2022-09-07T10:03:55.701Z,3976.00
2022-09-07T10:04:54.087Z,3832.00
2022-09-07T10:05:54.057Z,3856.00
2022-09-07T10:06:54.089Z,4096.00
2022-09-07T10:07:54.023Z,3848.00
2022-09-07T10:08:53.998Z,4164.00
2022-09-07T10:09:54.006Z,4752.00
2022-09-07T10:10:54.007Z,5436.00
2022-09-07T10:12:09.578Z,5184.00
2022-09-07T10:12:54.966Z,4692.00
2022-09-07T10:13:53.938Z,4552.00
2022-09-07T10:14:53.921Z,3964.00
2022-09-07T10:15:54.047Z,3568.00
2022-09-07T10:16:53.999Z,4328.00
2022-09-07T10:17:53.921Z,3924.00
2022-09-07T10:18:53.901Z,3652.00
2022-09-07T10:19:53.876Z,3880.00
2022-09-07T10:20:53.851Z,4324.00
2022-09-07T10:21:53.852Z,5304.00
2022-09-07T10:22:53.852Z,5584.00
2022-09-07T10:23:53.990Z,5628.00
2022-09-07T10:24:53.798Z,4724.00
2022-09-07T10:25:53.807Z,4728.00
2022-09-07T10:26:53.777Z,4304.00
2022-09-07T10:27:53.824Z,3996.00
2022-09-07T10:29:09.758Z,4048.00
2022-09-07T10:29:54.741Z,4076.00
2022-09-07T10:30:53.772Z,3528.00
2022-09-07T10:31:53.706Z,3688.00
2022-09-07T10:32:53.718Z,3864.00
2022-09-07T10:34:54.681Z,4704.00
2022-09-07T10:35:53.629Z,4144.00
2022-09-07T10:36:53.622Z,3988.00
2022-09-07T10:37:53.619Z,3832.00
2022-09-07T10:38:53.663Z,3808.00
2022-09-07T10:39:58.186Z,4400.00
2022-09-07T10:40:54.629Z,5076.00
2022-09-07T10:41:53.550Z,5404.00
2022-09-07T10:43:54.563Z,5560.00
2022-09-07T10:44:53.512Z,5484.00
2022-09-07T10:45:53.597Z,5488.00
2022-09-07T10:46:57.171Z,5576.00
2022-09-07T10:47:53.482Z,5616.00
2022-09-07T10:48:53.483Z,5588.00
2022-09-07T10:50:54.434Z,5560.00
2022-09-07T10:51:53.436Z,5500.00
2022-09-07T10:52:53.502Z,5432.00
2022-09-07T10:54:54.439Z,5544.00
2022-09-07T10:55:53.552Z,5700.00
2022-09-07T10:56:53.418Z,5844.00
2022-09-07T10:57:53.372Z,6028.00
2022-09-07T10:59:08.642Z,5996.00
2022-09-07T11:00:10.359Z,6504.00
2022-09-07T11:00:54.366Z,5868.00
2022-09-07T11:01:53.356Z,6032.00
2022-09-07T11:03:54.431Z,6400.00
2022-09-07T11:04:53.441Z,6192.00
2022-09-07T11:05:53.864Z,5136.00
2022-09-07T11:06:53.233Z,5040.00
2022-09-07T11:07:53.214Z,4900.00
2022-09-07T11:09:54.245Z,4484.00
2022-09-07T11:10:53.213Z,4492.00
2022-09-07T11:12:01.150Z,4468.00
2022-09-07T11:12:54.143Z,4404.00
2022-09-07T11:14:12.183Z,4168.00
2022-09-07T11:14:54.183Z,3832.00
2022-09-07T11:15:53.110Z,3652.00
2022-09-07T11:16:53.243Z,3676.00
2022-09-07T11:17:53.457Z,4324.00
2022-09-07T11:19:34.185Z,5216.00
2022-09-07T11:19:54.085Z,5100.00
2022-09-07T11:20:53.056Z,4868.00
2022-09-07T11:21:56.503Z,4732.00
2022-09-07T11:22:53.028Z,5156.00
2022-09-07T11:23:53.016Z,4432.00
2022-09-07T11:25:54.034Z,4720.00
2022-09-07T11:26:52.949Z,4636.00
2022-09-07T11:27:52.939Z,4736.00
2022-09-07T11:29:53.943Z,4288.00
2022-09-07T11:30:56.609Z,3988.00
2022-09-07T11:31:53.890Z,3672.00
2022-09-07T11:32:52.873Z,3736.00
2022-09-07T11:34:53.865Z,4316.00
2022-09-07T11:35:52.853Z,4712.00
2022-09-07T11:36:52.862Z,5232.00
2022-09-07T11:37:52.809Z,5404.00
2022-09-07T11:38:52.783Z,5608.00
2022-09-07T11:39:52.851Z,5336.00
2022-09-07T11:40:52.789Z,5620.00
2022-09-07T11:41:52.768Z,5552.00
2022-09-07T11:42:52.742Z,5572.00
2022-09-07T11:43:52.754Z,4912.00
2022-09-07T11:44:52.802Z,5296.00
2022-09-07T11:45:52.761Z,5120.00
2022-09-07T11:46:52.688Z,4936.00
2022-09-07T11:47:52.687Z,5112.00
2022-09-07T11:48:52.697Z,4924.00
2022-09-07T11:49:56.044Z,4720.00
2022-09-07T11:50:53.678Z,4836.00
2022-09-07T11:51:53.992Z,5056.00
2022-09-07T11:52:53.923Z,4720.00
2022-09-07T11:53:52.599Z,4572.00
2022-09-07T11:54:52.690Z,4728.00
2022-09-07T11:55:52.626Z,4888.00
2022-09-07T11:56:52.673Z,5220.00
2022-09-07T11:57:55.458Z,6524.00
2022-09-07T11:58:52.530Z,7008.00
2022-09-07T11:59:52.532Z,7100.00
2022-09-07T12:00:52.523Z,7256.00
2022-09-07T12:01:52.484Z,7432.00
2022-09-07T12:03:00.741Z,6680.00
2022-09-07T12:03:53.568Z,5924.00
2022-09-07T12:04:56.186Z,6000.00
2022-09-07T12:05:52.458Z,6372.00
2022-09-07T12:06:52.456Z,6680.00
2022-09-07T12:07:52.528Z,6856.00
2022-09-07T12:08:52.475Z,6000.00
2022-09-07T12:09:52.396Z,5880.00
2022-09-07T12:10:52.362Z,4048.00
2022-09-07T12:11:52.346Z,4056.00
2022-09-07T12:12:52.350Z,4760.00
2022-09-07T12:13:52.315Z,3560.00
2022-09-07T12:14:52.437Z,3544.00
2022-09-07T12:15:52.419Z,4544.00
2022-09-07T12:16:52.482Z,4528.00
2022-09-07T12:17:52.324Z,4352.00
2022-09-07T12:18:52.632Z,4496.00
2022-09-07T12:19:52.259Z,4540.00
2022-09-07T12:20:52.313Z,4720.00
2022-09-07T12:21:52.247Z,4728.00
2022-09-07T12:22:52.252Z,4556.00
2022-09-07T12:23:52.216Z,4524.00
2022-09-07T12:24:52.261Z,5088.00
2022-09-07T12:25:52.204Z,5268.00
2022-09-07T12:26:52.203Z,5204.00
2022-09-07T12:27:52.179Z,5472.00
2022-09-07T12:28:52.218Z,5772.00
2022-09-07T12:29:52.145Z,6164.00
2022-09-07T12:30:52.188Z,6664.00
2022-09-07T12:32:07.628Z,6624.00
2022-09-07T12:32:54.321Z,6292.00
2022-09-07T12:33:52.056Z,4460.00
2022-09-07T12:34:52.313Z,3988.00
2022-09-07T12:35:52.022Z,4080.00
2022-09-07T12:36:52.089Z,4380.00
2022-09-07T12:37:52.020Z,4688.00
2022-09-07T12:38:52.038Z,4472.00
2022-09-07T12:39:52.018Z,4564.00
2022-09-07T12:40:52.007Z,4784.00
2022-09-07T12:42:31.798Z,6404.00
2022-09-07T12:42:52.952Z,5400.00
2022-09-07T12:43:52.031Z,6016.00
2022-09-07T12:44:51.991Z,7236.00
2022-09-07T12:45:52.028Z,7360.00
2022-09-07T12:46:51.894Z,7456.00
2022-09-07T12:47:51.902Z,7200.00
2022-09-07T12:48:51.862Z,7232.00
2022-09-07T12:49:51.902Z,7580.00
2022-09-07T12:50:51.892Z,6972.00
2022-09-07T12:52:00.243Z,6584.00
2022-09-07T12:52:52.833Z,6308.00
2022-09-07T12:53:56.946Z,6332.00
2022-09-07T12:55:10.053Z,6464.00
2022-09-07T12:57:52.776Z,4332.00
2022-09-07T12:58:51.754Z,4916.00
2022-09-07T12:59:51.739Z,5968.00
2022-09-07T13:00:51.747Z,5228.00
2022-09-07T13:01:51.913Z,3724.00
2022-09-07T13:02:52.740Z,3544.00
2022-09-07T13:04:05.140Z,3564.00
2022-09-07T13:04:52.807Z,3928.00
2022-09-07T13:05:52.342Z,4776.00
2022-09-07T13:07:07.091Z,4852.00
2022-09-07T13:07:55.798Z,4328.00
2022-09-07T13:08:52.766Z,4468.00
2022-09-07T13:09:52.045Z,3816.00
2022-09-07T13:10:51.996Z,4004.00
2022-09-07T13:11:51.592Z,4152.00
2022-09-07T13:12:53.296Z,4392.00
2022-09-07T13:14:09.348Z,4468.00
2022-09-07T13:14:53.020Z,4452.00
2022-09-07T13:15:51.636Z,4632.00
2022-09-07T13:17:52.528Z,4584.00
2022-09-07T13:18:52.469Z,6644.00
2022-09-07T13:19:51.616Z,8040.00